sensor_id;sensor_type;location;lat;lon;timestamp;P1;durP1;ratioP1;P2;durP2;ratioP2
60919;SDS011;59039;52.108;19.942;2023-05-23T00:02:59;17.70;;;10.60;;
60919;SDS011;59039;52.108;19.942;2023-05-23T00:05:35;19.90;;;10.60;;
60919;SDS011;59039;52.108;19.942;2023-05-23T00:08:23;16.20;;;9.60;;
60919;SDS011;59039;52.108;19.942;2023-05-23T00:11:06;16.70;;;10.00;;
60919;SDS011;59039;52.108;19.942;2023-05-23T00:19:32;18.70;;;11.10;;
60919;SDS011;59039;52.108;19.942;2023-05-23T00:22:39;15.00;;;10.70;;
60919;SDS011;59039;52.108;19.942;2023-05-23T00:25:18;17.00;;;10.50;;
60919;SDS011;59039;52.108;19.942;2023-05-23T00:27:57;13.90;;;10.00;;
60919;SDS011;59039;52.108;19.942;2023-05-23T00:30:40;18.60;;;11.50;;
60919;SDS011;59039;52.108;19.942;2023-05-23T00:36:34;17.50;;;10.80;;
60919;SDS011;59039;52.108;19.942;2023-05-23T00:39:28;18.50;;;10.80;;
60919;SDS011;59039;52.108;19.942;2023-05-23T00:41:55;15.10;;;10.40;;
60919;SDS011;59039;52.108;19.942;2023-05-23T00:47:29;20.10;;;10.90;;
60919;SDS011;59039;52.108;19.942;2023-05-23T00:50:00;15.30;;;10.50;;
60919;SDS011;59039;52.108;19.942;2023-05-23T00:52:57;15.00;;;10.50;;
60919;SDS011;59039;52.108;19.942;2023-05-23T00:55:35;18.30;;;10.90;;
60919;SDS011;59039;52.108;19.942;2023-05-23T01:00:42;17.50;;;11.00;;
60919;SDS011;59039;52.108;19.942;2023-05-23T01:03:25;26.40;;;14.30;;
60919;SDS011;59039;52.108;19.942;2023-05-23T01:06:04;23.60;;;12.50;;
60919;SDS011;59039;52.108;19.942;2023-05-23T01:08:53;18.10;;;11.90;;
60919;SDS011;59039;52.108;19.942;2023-05-23T01:20:55;16.00;;;10.90;;
60919;SDS011;59039;52.108;19.942;2023-05-23T01:29:53;19.30;;;11.20;;
60919;SDS011;59039;52.108;19.942;2023-05-23T01:32:30;19.30;;;10.80;;
60919;SDS011;59039;52.108;19.942;2023-05-23T01:35:25;18.50;;;11.10;;
60919;SDS011;59039;52.108;19.942;2023-05-23T01:41:00;17.70;;;10.60;;
60919;SDS011;59039;52.108;19.942;2023-05-23T01:43:28;18.40;;;11.00;;
60919;SDS011;59039;52.108;19.942;2023-05-23T01:46:34;19.20;;;11.00;;
60919;SDS011;59039;52.108;19.942;2023-05-23T01:49:22;16.10;;;11.00;;
60919;SDS011;59039;52.108;19.942;2023-05-23T01:51:57;16.60;;;11.20;;
60919;SDS011;59039;52.108;19.942;2023-05-23T01:54:28;19.80;;;11.20;;
60919;SDS011;59039;52.108;19.942;2023-05-23T01:59:46;16.90;;;10.10;;
60919;SDS011;59039;52.108;19.942;2023-05-23T02:05:04;19.80;;;10.60;;
60919;SDS011;59039;52.108;19.942;2023-05-23T02:10:38;14.90;;;9.60;;
60919;SDS011;59039;52.108;19.942;2023-05-23T02:18:48;17.00;;;10.30;;
60919;SDS011;59039;52.108;19.942;2023-05-23T02:24:45;19.30;;;12.00;;
60919;SDS011;59039;52.108;19.942;2023-05-23T02:33:21;18.80;;;11.50;;
60919;SDS011;59039;52.108;19.942;2023-05-23T02:35:55;19.60;;;11.30;;
60919;SDS011;59039;52.108;19.942;2023-05-23T02:38:41;21.10;;;10.70;;
60919;SDS011;59039;52.108;19.942;2023-05-23T02:41:36;19.70;;;11.70;;
60919;SDS011;59039;52.108;19.942;2023-05-23T02:52:48;18.10;;;11.20;;
60919;SDS011;59039;52.108;19.942;2023-05-23T02:58:51;22.40;;;12.00;;
60919;SDS011;59039;52.108;19.942;2023-05-23T03:01:21;18.00;;;11.20;;
60919;SDS011;59039;52.108;19.942;2023-05-23T03:06:53;19.10;;;12.30;;
60919;SDS011;59039;52.108;19.942;2023-05-23T03:09:19;19.40;;;12.50;;
60919;SDS011;59039;52.108;19.942;2023-05-23T03:11:55;23.20;;;12.20;;
60919;SDS011;59039;52.108;19.942;2023-05-23T03:14:33;21.90;;;14.20;;
60919;SDS011;59039;52.108;19.942;2023-05-23T03:17:10;25.90;;;14.00;;
60919;SDS011;59039;52.108;19.942;2023-05-23T03:19:56;22.60;;;13.70;;
60919;SDS011;59039;52.108;19.942;2023-05-23T03:22:47;20.00;;;13.80;;
60919;SDS011;59039;52.108;19.942;2023-05-23T03:25:17;22.10;;;13.30;;
60919;SDS011;59039;52.108;19.942;2023-05-23T03:30:39;19.90;;;13.70;;
60919;SDS011;59039;52.108;19.942;2023-05-23T03:33:47;19.10;;;12.50;;
60919;SDS011;59039;52.108;19.942;2023-05-23T03:36:14;18.00;;;11.70;;
60919;SDS011;59039;52.108;19.942;2023-05-23T03:39:06;21.60;;;13.70;;
60919;SDS011;59039;52.108;19.942;2023-05-23T03:42:01;21.70;;;13.70;;
60919;SDS011;59039;52.108;19.942;2023-05-23T03:44:28;21.30;;;13.30;;
60919;SDS011;59039;52.108;19.942;2023-05-23T03:47:01;24.00;;;13.70;;
60919;SDS011;59039;52.108;19.942;2023-05-23T03:49:52;18.20;;;12.40;;
60919;SDS011;59039;52.108;19.942;2023-05-23T03:52:38;19.50;;;13.20;;
60919;SDS011;59039;52.108;19.942;2023-05-23T03:55:09;19.40;;;12.90;;
60919;SDS011;59039;52.108;19.942;2023-05-23T03:57:48;19.80;;;13.00;;
60919;SDS011;59039;52.108;19.942;2023-05-23T04:03:41;20.10;;;12.90;;
60919;SDS011;59039;52.108;19.942;2023-05-23T04:06:31;24.00;;;12.60;;
60919;SDS011;59039;52.108;19.942;2023-05-23T04:11:59;19.40;;;12.30;;
60919;SDS011;59039;52.108;19.942;2023-05-23T04:14:32;18.40;;;12.00;;
60919;SDS011;59039;52.108;19.942;2023-05-23T04:29:17;15.70;;;11.40;;
60919;SDS011;59039;52.108;19.942;2023-05-23T04:31:59;17.30;;;10.80;;
60919;SDS011;59039;52.108;19.942;2023-05-23T04:34:36;16.80;;;10.90;;
60919;SDS011;59039;52.108;19.942;2023-05-23T04:37:16;16.00;;;11.00;;
60919;SDS011;59039;52.108;19.942;2023-05-23T04:42:43;14.40;;;10.60;;
60919;SDS011;59039;52.108;19.942;2023-05-23T04:45:17;15.80;;;11.10;;
60919;SDS011;59039;52.108;19.942;2023-05-23T04:48:24;17.00;;;11.10;;
60919;SDS011;59039;52.108;19.942;2023-05-23T04:56:59;16.40;;;11.20;;
60919;SDS011;59039;52.108;19.942;2023-05-23T05:00:01;13.90;;;9.50;;
60919;SDS011;59039;52.108;19.942;2023-05-23T05:02:43;16.00;;;11.30;;
60919;SDS011;59039;52.108;19.942;2023-05-23T05:08:07;17.30;;;10.30;;
60919;SDS011;59039;52.108;19.942;2023-05-23T05:13:31;15.30;;;10.30;;
60919;SDS011;59039;52.108;19.942;2023-05-23T05:18:55;17.30;;;9.50;;
60919;SDS011;59039;52.108;19.942;2023-05-23T05:21:23;14.70;;;10.30;;
60919;SDS011;59039;52.108;19.942;2023-05-23T05:26:53;10.10;;;8.30;;
60919;SDS011;59039;52.108;19.942;2023-05-23T05:43:16;14.80;;;8.20;;
60919;SDS011;59039;52.108;19.942;2023-05-23T05:45:54;11.00;;;8.00;;
60919;SDS011;59039;52.108;19.942;2023-05-23T05:48:25;10.40;;;7.30;;
60919;SDS011;59039;52.108;19.942;2023-05-23T05:50:56;12.20;;;7.60;;
60919;SDS011;59039;52.108;19.942;2023-05-23T05:53:22;10.10;;;7.20;;
60919;SDS011;59039;52.108;19.942;2023-05-23T05:55:52;12.30;;;8.10;;
60919;SDS011;59039;52.108;19.942;2023-05-23T05:58:18;9.60;;;7.30;;
60919;SDS011;59039;52.108;19.942;2023-05-23T06:01:07;8.70;;;6.70;;
60919;SDS011;59039;52.108;19.942;2023-05-23T06:03:56;11.00;;;7.50;;
60919;SDS011;59039;52.108;19.942;2023-05-23T06:06:24;10.50;;;7.10;;
60919;SDS011;59039;52.108;19.942;2023-05-23T06:08:59;11.80;;;7.20;;
60919;SDS011;59039;52.108;19.942;2023-05-23T06:11:34;10.70;;;6.90;;
60919;SDS011;59039;52.108;19.942;2023-05-23T06:16:59;15.10;;;6.50;;
60919;SDS011;59039;52.108;19.942;2023-05-23T06:19:27;9.50;;;6.90;;
60919;SDS011;59039;52.108;19.942;2023-05-23T06:21:57;11.30;;;6.00;;
60919;SDS011;59039;52.108;19.942;2023-05-23T06:27:16;11.40;;;5.80;;
60919;SDS011;59039;52.108;19.942;2023-05-23T06:29:45;6.90;;;5.40;;
60919;SDS011;59039;52.108;19.942;2023-05-23T06:37:52;8.80;;;4.80;;
60919;SDS011;59039;52.108;19.942;2023-05-23T06:40:21;7.20;;;5.20;;
60919;SDS011;59039;52.108;19.942;2023-05-23T06:43:09;7.80;;;5.60;;
60919;SDS011;59039;52.108;19.942;2023-05-23T06:45:37;7.50;;;5.10;;
60919;SDS011;59039;52.108;19.942;2023-05-23T06:48:03;7.50;;;4.90;;
60919;SDS011;59039;52.108;19.942;2023-05-23T06:50:28;7.00;;;5.20;;
60919;SDS011;59039;52.108;19.942;2023-05-23T06:52:54;7.50;;;4.90;;
60919;SDS011;59039;52.108;19.942;2023-05-23T06:55:19;5.80;;;4.50;;
60919;SDS011;59039;52.108;19.942;2023-05-23T06:57:50;7.80;;;4.80;;
60919;SDS011;59039;52.108;19.942;2023-05-23T07:00:15;6.30;;;4.40;;
60919;SDS011;59039;52.108;19.942;2023-05-23T07:02:44;7.60;;;4.60;;
60919;SDS011;59039;52.108;19.942;2023-05-23T07:05:18;10.80;;;4.80;;
60919;SDS011;59039;52.108;19.942;2023-05-23T07:08:05;9.10;;;4.60;;
60919;SDS011;59039;52.108;19.942;2023-05-23T07:10:31;8.30;;;4.30;;
60919;SDS011;59039;52.108;19.942;2023-05-23T07:12:56;5.80;;;4.00;;
60919;SDS011;59039;52.108;19.942;2023-05-23T07:15:22;7.40;;;4.10;;
60919;SDS011;59039;52.108;19.942;2023-05-23T07:17:50;8.00;;;4.30;;
60919;SDS011;59039;52.108;19.942;2023-05-23T07:20:19;6.10;;;4.10;;
60919;SDS011;59039;52.108;19.942;2023-05-23T07:22:50;7.30;;;4.30;;
60919;SDS011;59039;52.108;19.942;2023-05-23T07:25:16;6.30;;;4.20;;
60919;SDS011;59039;52.108;19.942;2023-05-23T07:27:41;5.10;;;3.40;;
60919;SDS011;59039;52.108;19.942;2023-05-23T07:30:07;4.50;;;3.90;;
60919;SDS011;59039;52.108;19.942;2023-05-23T07:32:32;8.10;;;4.30;;
60919;SDS011;59039;52.108;19.942;2023-05-23T07:34:58;6.80;;;3.90;;
60919;SDS011;59039;52.108;19.942;2023-05-23T07:37:23;8.90;;;4.50;;
60919;SDS011;59039;52.108;19.942;2023-05-23T07:39:49;6.00;;;4.00;;
60919;SDS011;59039;52.108;19.942;2023-05-23T07:42:16;8.20;;;4.10;;
60919;SDS011;59039;52.108;19.942;2023-05-23T07:44:42;12.30;;;3.80;;
60919;SDS011;59039;52.108;19.942;2023-05-23T07:47:07;6.20;;;3.40;;
60919;SDS011;59039;52.108;19.942;2023-05-23T07:49:33;6.50;;;3.90;;
60919;SDS011;59039;52.108;19.942;2023-05-23T07:51:58;5.60;;;3.80;;
60919;SDS011;59039;52.108;19.942;2023-05-23T07:54:24;7.00;;;3.90;;
60919;SDS011;59039;52.108;19.942;2023-05-23T07:56:49;5.30;;;3.90;;
60919;SDS011;59039;52.108;19.942;2023-05-23T07:59:14;5.60;;;3.50;;
60919;SDS011;59039;52.108;19.942;2023-05-23T08:01:39;4.50;;;3.70;;
60919;SDS011;59039;52.108;19.942;2023-05-23T08:04:05;7.00;;;3.70;;
60919;SDS011;59039;52.108;19.942;2023-05-23T08:06:30;5.80;;;4.10;;
60919;SDS011;59039;52.108;19.942;2023-05-23T08:08:55;5.20;;;4.30;;
60919;SDS011;59039;52.108;19.942;2023-05-23T08:11:21;4.90;;;3.60;;
60919;SDS011;59039;52.108;19.942;2023-05-23T08:13:46;6.60;;;3.40;;
60919;SDS011;59039;52.108;19.942;2023-05-23T08:16:11;6.40;;;3.60;;
60919;SDS011;59039;52.108;19.942;2023-05-23T08:18:37;5.70;;;3.30;;
60919;SDS011;59039;52.108;19.942;2023-05-23T08:21:02;8.50;;;3.70;;
60919;SDS011;59039;52.108;19.942;2023-05-23T08:23:27;7.20;;;3.90;;
60919;SDS011;59039;52.108;19.942;2023-05-23T08:25:53;12.20;;;4.00;;
60919;SDS011;59039;52.108;19.942;2023-05-23T08:28:18;4.50;;;3.60;;
60919;SDS011;59039;52.108;19.942;2023-05-23T08:30:44;7.90;;;3.60;;
60919;SDS011;59039;52.108;19.942;2023-05-23T08:33:09;6.00;;;3.40;;
60919;SDS011;59039;52.108;19.942;2023-05-23T08:35:34;4.90;;;3.40;;
60919;SDS011;59039;52.108;19.942;2023-05-23T08:38:02;6.80;;;3.80;;
60919;SDS011;59039;52.108;19.942;2023-05-23T08:40:29;6.50;;;3.50;;
60919;SDS011;59039;52.108;19.942;2023-05-23T08:42:55;6.80;;;3.90;;
60919;SDS011;59039;52.108;19.942;2023-05-23T08:45:20;6.30;;;4.00;;
60919;SDS011;59039;52.108;19.942;2023-05-23T08:47:46;8.20;;;3.90;;
60919;SDS011;59039;52.108;19.942;2023-05-23T08:50:14;6.30;;;3.60;;
60919;SDS011;59039;52.108;19.942;2023-05-23T08:52:47;7.50;;;4.20;;
60919;SDS011;59039;52.108;19.942;2023-05-23T08:55:18;6.00;;;3.50;;
60919;SDS011;59039;52.108;19.942;2023-05-23T08:57:44;4.80;;;3.40;;
60919;SDS011;59039;52.108;19.942;2023-05-23T09:00:13;6.80;;;3.70;;
60919;SDS011;59039;52.108;19.942;2023-05-23T09:02:39;7.60;;;3.70;;
60919;SDS011;59039;52.108;19.942;2023-05-23T09:05:08;4.70;;;3.80;;
60919;SDS011;59039;52.108;19.942;2023-05-23T09:07:36;5.20;;;3.80;;
60919;SDS011;59039;52.108;19.942;2023-05-23T09:10:05;5.70;;;3.50;;
60919;SDS011;59039;52.108;19.942;2023-05-23T09:12:33;5.30;;;3.80;;
60919;SDS011;59039;52.108;19.942;2023-05-23T09:14:59;6.80;;;3.80;;
60919;SDS011;59039;52.108;19.942;2023-05-23T09:17:24;8.00;;;4.60;;
60919;SDS011;59039;52.108;19.942;2023-05-23T09:19:50;7.30;;;4.50;;
60919;SDS011;59039;52.108;19.942;2023-05-23T09:22:15;8.50;;;3.80;;
60919;SDS011;59039;52.108;19.942;2023-05-23T09:24:41;9.20;;;4.30;;
60919;SDS011;59039;52.108;19.942;2023-05-23T09:27:07;7.80;;;4.40;;
60919;SDS011;59039;52.108;19.942;2023-05-23T09:29:39;4.80;;;3.80;;
60919;SDS011;59039;52.108;19.942;2023-05-23T09:32:11;7.30;;;3.90;;
60919;SDS011;59039;52.108;19.942;2023-05-23T09:35:21;5.50;;;4.00;;
60919;SDS011;59039;52.108;19.942;2023-05-23T09:39:56;4.90;;;3.70;;
60919;SDS011;59039;52.108;19.942;2023-05-23T09:42:23;4.50;;;3.20;;
60919;SDS011;59039;52.108;19.942;2023-05-23T09:44:48;6.50;;;3.70;;
60919;SDS011;59039;52.108;19.942;2023-05-23T09:47:15;6.90;;;3.80;;
60919;SDS011;59039;52.108;19.942;2023-05-23T09:49:44;7.20;;;3.80;;
60919;SDS011;59039;52.108;19.942;2023-05-23T09:52:10;6.50;;;4.00;;
60919;SDS011;59039;52.108;19.942;2023-05-23T09:54:35;5.40;;;3.40;;
60919;SDS011;59039;52.108;19.942;2023-05-23T09:57:01;5.80;;;3.60;;
60919;SDS011;59039;52.108;19.942;2023-05-23T09:59:27;5.80;;;4.00;;
60919;SDS011;59039;52.108;19.942;2023-05-23T10:01:57;5.20;;;3.70;;
60919;SDS011;59039;52.108;19.942;2023-05-23T10:04:30;5.40;;;3.90;;
60919;SDS011;59039;52.108;19.942;2023-05-23T10:07:00;6.40;;;4.00;;
60919;SDS011;59039;52.108;19.942;2023-05-23T10:09:35;5.80;;;3.60;;
60919;SDS011;59039;52.108;19.942;2023-05-23T10:12:20;5.10;;;3.50;;
60919;SDS011;59039;52.108;19.942;2023-05-23T10:15:14;5.20;;;4.00;;
60919;SDS011;59039;52.108;19.942;2023-05-23T10:20:13;5.80;;;3.90;;
60919;SDS011;59039;52.108;19.942;2023-05-23T10:22:40;8.00;;;4.00;;
60919;SDS011;59039;52.108;19.942;2023-05-23T10:25:06;9.20;;;3.90;;
60919;SDS011;59039;52.108;19.942;2023-05-23T10:27:33;5.00;;;3.80;;
60919;SDS011;59039;52.108;19.942;2023-05-23T10:29:58;6.80;;;4.00;;
60919;SDS011;59039;52.108;19.942;2023-05-23T10:32:27;5.40;;;4.30;;
60919;SDS011;59039;52.108;19.942;2023-05-23T10:37:45;7.40;;;4.30;;
60919;SDS011;59039;52.108;19.942;2023-05-23T10:40:19;8.30;;;4.50;;
60919;SDS011;59039;52.108;19.942;2023-05-23T10:42:53;9.10;;;4.30;;
60919;SDS011;59039;52.108;19.942;2023-05-23T10:45:23;5.50;;;4.10;;
60919;SDS011;59039;52.108;19.942;2023-05-23T10:47:49;7.70;;;3.80;;
60919;SDS011;59039;52.108;19.942;2023-05-23T10:50:29;7.70;;;4.40;;
60919;SDS011;59039;52.108;19.942;2023-05-23T10:55:24;7.10;;;4.10;;
60919;SDS011;59039;52.108;19.942;2023-05-23T10:58:07;6.60;;;4.10;;
60919;SDS011;59039;52.108;19.942;2023-05-23T11:00:52;7.90;;;3.70;;
60919;SDS011;59039;52.108;19.942;2023-05-23T11:06:01;7.60;;;4.30;;
60919;SDS011;59039;52.108;19.942;2023-05-23T11:08:37;5.00;;;3.60;;
60919;SDS011;59039;52.108;19.942;2023-05-23T11:11:03;8.40;;;4.00;;
60919;SDS011;59039;52.108;19.942;2023-05-23T11:14:14;5.90;;;4.20;;
60919;SDS011;59039;52.108;19.942;2023-05-23T11:16:30;6.60;;;4.20;;
60919;SDS011;59039;52.108;19.942;2023-05-23T11:21:44;6.50;;;4.30;;
60919;SDS011;59039;52.108;19.942;2023-05-23T11:24:13;5.70;;;4.30;;
60919;SDS011;59039;52.108;19.942;2023-05-23T11:26:38;7.00;;;4.20;;
60919;SDS011;59039;52.108;19.942;2023-05-23T11:29:07;6.60;;;4.30;;
60919;SDS011;59039;52.108;19.942;2023-05-23T11:31:36;6.00;;;4.00;;
60919;SDS011;59039;52.108;19.942;2023-05-23T11:34:02;9.60;;;4.40;;
60919;SDS011;59039;52.108;19.942;2023-05-23T11:36:28;7.20;;;3.70;;
60919;SDS011;59039;52.108;19.942;2023-05-23T11:38:54;7.40;;;4.20;;
60919;SDS011;59039;52.108;19.942;2023-05-23T11:41:19;6.60;;;4.40;;
60919;SDS011;59039;52.108;19.942;2023-05-23T11:43:51;7.90;;;4.10;;
60919;SDS011;59039;52.108;19.942;2023-05-23T11:46:16;6.10;;;4.50;;
60919;SDS011;59039;52.108;19.942;2023-05-23T11:48:45;5.50;;;4.10;;
60919;SDS011;59039;52.108;19.942;2023-05-23T11:51:11;5.20;;;3.70;;
60919;SDS011;59039;52.108;19.942;2023-05-23T11:53:36;6.20;;;3.70;;
60919;SDS011;59039;52.108;19.942;2023-05-23T11:56:02;5.00;;;4.00;;
60919;SDS011;59039;52.108;19.942;2023-05-23T11:58:28;10.10;;;3.90;;
60919;SDS011;59039;52.108;19.942;2023-05-23T12:01:01;7.20;;;3.90;;
60919;SDS011;59039;52.108;19.942;2023-05-23T12:03:34;7.50;;;3.90;;
60919;SDS011;59039;52.108;19.942;2023-05-23T12:06:08;5.70;;;3.90;;
60919;SDS011;59039;52.108;19.942;2023-05-23T12:08:33;5.80;;;3.80;;
60919;SDS011;59039;52.108;19.942;2023-05-23T12:10:59;5.50;;;3.60;;
60919;SDS011;59039;52.108;19.942;2023-05-23T12:13:26;6.60;;;4.90;;
60919;SDS011;59039;52.108;19.942;2023-05-23T12:15:56;5.60;;;4.60;;
60919;SDS011;59039;52.108;19.942;2023-05-23T12:18:24;6.70;;;4.90;;
60919;SDS011;59039;52.108;19.942;2023-05-23T12:20:52;10.10;;;6.00;;
60919;SDS011;59039;52.108;19.942;2023-05-23T12:23:19;7.50;;;4.80;;
60919;SDS011;59039;52.108;19.942;2023-05-23T12:25:48;7.00;;;4.40;;
60919;SDS011;59039;52.108;19.942;2023-05-23T12:28:15;11.50;;;6.40;;
60919;SDS011;59039;52.108;19.942;2023-05-23T12:30:41;7.80;;;5.10;;
60919;SDS011;59039;52.108;19.942;2023-05-23T12:33:07;6.60;;;4.60;;
60919;SDS011;59039;52.108;19.942;2023-05-23T12:35:33;6.90;;;4.90;;
60919;SDS011;59039;52.108;19.942;2023-05-23T12:37:58;7.70;;;4.40;;
60919;SDS011;59039;52.108;19.942;2023-05-23T12:40:27;8.70;;;4.80;;
60919;SDS011;59039;52.108;19.942;2023-05-23T12:43:07;7.80;;;4.50;;
60919;SDS011;59039;52.108;19.942;2023-05-23T12:45:34;9.70;;;4.70;;
60919;SDS011;59039;52.108;19.942;2023-05-23T12:48:00;9.80;;;4.60;;
60919;SDS011;59039;52.108;19.942;2023-05-23T12:50:29;8.60;;;4.70;;
60919;SDS011;59039;52.108;19.942;2023-05-23T12:53:03;8.50;;;4.50;;
60919;SDS011;59039;52.108;19.942;2023-05-23T12:55:29;6.30;;;4.50;;
60919;SDS011;59039;52.108;19.942;2023-05-23T12:57:57;6.80;;;4.70;;
60919;SDS011;59039;52.108;19.942;2023-05-23T13:00:22;7.80;;;4.60;;
60919;SDS011;59039;52.108;19.942;2023-05-23T13:02:48;7.80;;;4.60;;
60919;SDS011;59039;52.108;19.942;2023-05-23T13:05:13;6.40;;;4.40;;
60919;SDS011;59039;52.108;19.942;2023-05-23T13:07:41;8.50;;;4.60;;
60919;SDS011;59039;52.108;19.942;2023-05-23T13:10:07;8.00;;;4.50;;
60919;SDS011;59039;52.108;19.942;2023-05-23T13:12:35;8.20;;;5.20;;
60919;SDS011;59039;52.108;19.942;2023-05-23T13:15:01;7.50;;;4.50;;
60919;SDS011;59039;52.108;19.942;2023-05-23T13:17:30;7.60;;;4.80;;
60919;SDS011;59039;52.108;19.942;2023-05-23T13:19:58;9.80;;;4.50;;
60919;SDS011;59039;52.108;19.942;2023-05-23T13:22:24;8.00;;;4.80;;
60919;SDS011;59039;52.108;19.942;2023-05-23T13:24:49;6.60;;;4.60;;
60919;SDS011;59039;52.108;19.942;2023-05-23T13:27:14;6.50;;;4.10;;
60919;SDS011;59039;52.108;19.942;2023-05-23T13:29:40;6.90;;;4.70;;
60919;SDS011;59039;52.108;19.942;2023-05-23T13:32:05;7.10;;;3.90;;
60919;SDS011;59039;52.108;19.942;2023-05-23T13:34:34;7.40;;;4.10;;
60919;SDS011;59039;52.108;19.942;2023-05-23T13:39:35;7.10;;;4.60;;
60919;SDS011;59039;52.108;19.942;2023-05-23T13:42:00;6.30;;;4.60;;
60919;SDS011;59039;52.108;19.942;2023-05-23T13:44:25;6.70;;;4.40;;
60919;SDS011;59039;52.108;19.942;2023-05-23T13:46:51;7.10;;;4.20;;
60919;SDS011;59039;52.108;19.942;2023-05-23T13:49:16;6.30;;;4.70;;
60919;SDS011;59039;52.108;19.942;2023-05-23T13:51:41;6.60;;;4.70;;
60919;SDS011;59039;52.108;19.942;2023-05-23T13:54:06;8.60;;;4.40;;
60919;SDS011;59039;52.108;19.942;2023-05-23T13:56:32;6.30;;;4.80;;
60919;SDS011;59039;52.108;19.942;2023-05-23T13:58:57;7.30;;;4.40;;
60919;SDS011;59039;52.108;19.942;2023-05-23T14:01:23;5.70;;;4.30;;
60919;SDS011;59039;52.108;19.942;2023-05-23T14:03:48;7.90;;;4.50;;
60919;SDS011;59039;52.108;19.942;2023-05-23T14:06:13;7.60;;;4.70;;
60919;SDS011;59039;52.108;19.942;2023-05-23T14:08:39;5.80;;;4.50;;
60919;SDS011;59039;52.108;19.942;2023-05-23T14:11:04;10.00;;;4.60;;
60919;SDS011;59039;52.108;19.942;2023-05-23T14:13:32;10.20;;;4.60;;
60919;SDS011;59039;52.108;19.942;2023-05-23T14:15:57;5.90;;;5.10;;
60919;SDS011;59039;52.108;19.942;2023-05-23T14:18:22;6.60;;;4.80;;
60919;SDS011;59039;52.108;19.942;2023-05-23T14:20:48;7.50;;;4.50;;
60919;SDS011;59039;52.108;19.942;2023-05-23T14:23:13;8.40;;;4.80;;
60919;SDS011;59039;52.108;19.942;2023-05-23T14:25:38;8.50;;;4.90;;
60919;SDS011;59039;52.108;19.942;2023-05-23T14:28:04;8.20;;;4.60;;
60919;SDS011;59039;52.108;19.942;2023-05-23T14:30:29;8.50;;;5.10;;
60919;SDS011;59039;52.108;19.942;2023-05-23T14:32:54;5.80;;;4.40;;
60919;SDS011;59039;52.108;19.942;2023-05-23T14:35:20;6.90;;;4.90;;
60919;SDS011;59039;52.108;19.942;2023-05-23T14:37:45;6.60;;;4.60;;
60919;SDS011;59039;52.108;19.942;2023-05-23T14:40:11;9.90;;;4.70;;
60919;SDS011;59039;52.108;19.942;2023-05-23T14:42:36;12.50;;;4.60;;
60919;SDS011;59039;52.108;19.942;2023-05-23T14:45:04;9.00;;;4.70;;
60919;SDS011;59039;52.108;19.942;2023-05-23T14:47:32;6.20;;;4.70;;
60919;SDS011;59039;52.108;19.942;2023-05-23T14:50:00;7.30;;;4.60;;
60919;SDS011;59039;52.108;19.942;2023-05-23T14:52:25;8.50;;;4.90;;
60919;SDS011;59039;52.108;19.942;2023-05-23T14:54:50;7.00;;;4.90;;
60919;SDS011;59039;52.108;19.942;2023-05-23T14:57:16;6.70;;;4.60;;
60919;SDS011;59039;52.108;19.942;2023-05-23T14:59:41;11.40;;;4.60;;
60919;SDS011;59039;52.108;19.942;2023-05-23T15:02:07;9.00;;;4.90;;
60919;SDS011;59039;52.108;19.942;2023-05-23T15:04:32;6.70;;;4.70;;
60919;SDS011;59039;52.108;19.942;2023-05-23T15:06:58;7.60;;;4.80;;
60919;SDS011;59039;52.108;19.942;2023-05-23T15:09:24;6.30;;;4.80;;
60919;SDS011;59039;52.108;19.942;2023-05-23T15:11:49;9.20;;;5.50;;
60919;SDS011;59039;52.108;19.942;2023-05-23T15:14:15;6.00;;;4.90;;
60919;SDS011;59039;52.108;19.942;2023-05-23T15:16:41;6.60;;;4.70;;
60919;SDS011;59039;52.108;19.942;2023-05-23T15:19:06;8.00;;;4.90;;
60919;SDS011;59039;52.108;19.942;2023-05-23T15:21:31;8.70;;;5.20;;
60919;SDS011;59039;52.108;19.942;2023-05-23T15:23:56;7.10;;;4.80;;
60919;SDS011;59039;52.108;19.942;2023-05-23T15:26:22;7.30;;;4.90;;
60919;SDS011;59039;52.108;19.942;2023-05-23T15:28:47;8.60;;;5.10;;
60919;SDS011;59039;52.108;19.942;2023-05-23T15:31:12;7.40;;;4.80;;
60919;SDS011;59039;52.108;19.942;2023-05-23T15:33:38;6.70;;;4.90;;
60919;SDS011;59039;52.108;19.942;2023-05-23T15:36:03;6.80;;;4.80;;
60919;SDS011;59039;52.108;19.942;2023-05-23T15:38:29;11.30;;;5.50;;
60919;SDS011;59039;52.108;19.942;2023-05-23T15:40:54;7.50;;;5.10;;
60919;SDS011;59039;52.108;19.942;2023-05-23T15:43:19;7.90;;;5.00;;
60919;SDS011;59039;52.108;19.942;2023-05-23T15:45:45;7.80;;;5.00;;
60919;SDS011;59039;52.108;19.942;2023-05-23T15:48:10;8.30;;;4.70;;
60919;SDS011;59039;52.108;19.942;2023-05-23T15:50:35;7.90;;;5.60;;
60919;SDS011;59039;52.108;19.942;2023-05-23T15:53:01;9.20;;;5.60;;
60919;SDS011;59039;52.108;19.942;2023-05-23T15:55:26;8.80;;;6.80;;
60919;SDS011;59039;52.108;19.942;2023-05-23T15:57:51;10.20;;;6.70;;
60919;SDS011;59039;52.108;19.942;2023-05-23T16:00:17;8.60;;;6.00;;
60919;SDS011;59039;52.108;19.942;2023-05-23T16:02:42;9.80;;;5.90;;
60919;SDS011;59039;52.108;19.942;2023-05-23T16:05:10;8.00;;;5.80;;
60919;SDS011;59039;52.108;19.942;2023-05-23T16:07:44;9.50;;;6.70;;
60919;SDS011;59039;52.108;19.942;2023-05-23T16:10:10;9.60;;;5.80;;
60919;SDS011;59039;52.108;19.942;2023-05-23T16:12:36;9.80;;;6.40;;
60919;SDS011;59039;52.108;19.942;2023-05-23T16:15:01;9.80;;;6.50;;
60919;SDS011;59039;52.108;19.942;2023-05-23T16:17:26;11.40;;;6.00;;
60919;SDS011;59039;52.108;19.942;2023-05-23T16:19:52;10.20;;;5.90;;
60919;SDS011;59039;52.108;19.942;2023-05-23T16:22:20;10.40;;;5.90;;
60919;SDS011;59039;52.108;19.942;2023-05-23T16:24:45;12.90;;;5.80;;
60919;SDS011;59039;52.108;19.942;2023-05-23T16:27:10;8.90;;;5.50;;
60919;SDS011;59039;52.108;19.942;2023-05-23T16:29:36;11.00;;;5.40;;
60919;SDS011;59039;52.108;19.942;2023-05-23T16:32:04;11.20;;;6.30;;
60919;SDS011;59039;52.108;19.942;2023-05-23T16:34:29;20.00;;;11.20;;
60919;SDS011;59039;52.108;19.942;2023-05-23T16:36:58;22.00;;;11.50;;
60919;SDS011;59039;52.108;19.942;2023-05-23T16:39:23;22.80;;;13.30;;
60919;SDS011;59039;52.108;19.942;2023-05-23T16:41:48;25.50;;;13.30;;
60919;SDS011;59039;52.108;19.942;2023-05-23T16:44:13;29.00;;;14.20;;
60919;SDS011;59039;52.108;19.942;2023-05-23T16:46:39;24.10;;;13.10;;
60919;SDS011;59039;52.108;19.942;2023-05-23T16:49:04;28.70;;;11.60;;
60919;SDS011;59039;52.108;19.942;2023-05-23T16:51:29;22.70;;;11.60;;
60919;SDS011;59039;52.108;19.942;2023-05-23T16:53:55;19.50;;;10.50;;
60919;SDS011;59039;52.108;19.942;2023-05-23T16:56:20;32.00;;;19.50;;
60919;SDS011;59039;52.108;19.942;2023-05-23T16:58:45;28.80;;;15.90;;
60919;SDS011;59039;52.108;19.942;2023-05-23T17:01:10;25.90;;;14.40;;
60919;SDS011;59039;52.108;19.942;2023-05-23T17:03:36;17.00;;;9.90;;
60919;SDS011;59039;52.108;19.942;2023-05-23T17:06:10;15.80;;;9.10;;
60919;SDS011;59039;52.108;19.942;2023-05-23T17:08:35;9.60;;;6.60;;
60919;SDS011;59039;52.108;19.942;2023-05-23T17:11:00;9.40;;;6.40;;
60919;SDS011;59039;52.108;19.942;2023-05-23T17:13:26;11.20;;;6.40;;
60919;SDS011;59039;52.108;19.942;2023-05-23T17:15:51;9.40;;;6.30;;
60919;SDS011;59039;52.108;19.942;2023-05-23T17:18:16;12.30;;;7.40;;
60919;SDS011;59039;52.108;19.942;2023-05-23T17:20:41;11.00;;;7.40;;
60919;SDS011;59039;52.108;19.942;2023-05-23T17:23:07;17.00;;;8.40;;